PILOTS ONLINE: 213    ATC ONLINE: 31

KMEV - Minden Tahoe Airport

Location

City Minden
Country  United States
Latitude 39° 0' 1" N
Longitude 119° 45' 3" W
Elevation 4722 ft
Type Small Airport

Runways

12/30 5300 ft / 75 ft
12G/30G 2200 ft / 60 ft
16/34 7400 ft / 100 ft

Weather

METAR
2014/07/23 05:15
KMEV 230515Z AUTO 19007KT 10SM CLR 18/08 A3019 RMK AO2
TAF
No TAF available

Outbound flights

Inbound flights